createdAt,value
2019-01-11T00:00:32.650Z,2.74
2019-01-11T00:01:32.824Z,2.68
2019-01-11T00:02:32.974Z,2.69
2019-01-11T00:03:33.148Z,2.71
2019-01-11T00:04:33.329Z,2.72
2019-01-11T00:05:33.491Z,2.57
2019-01-11T00:06:33.666Z,2.57
2019-01-11T00:07:33.823Z,2.65
2019-01-11T00:08:33.988Z,2.67
2019-01-11T00:09:34.167Z,2.60
2019-01-11T00:10:34.329Z,2.57
2019-01-11T00:11:34.498Z,2.56
2019-01-11T00:12:34.677Z,2.62
2019-01-11T00:13:34.842Z,2.57
2019-01-11T00:14:35.007Z,2.57
2019-01-11T00:15:35.178Z,2.60
2019-01-11T00:16:35.349Z,2.64
2019-01-11T00:17:35.511Z,2.72
2019-01-11T00:18:35.681Z,2.60
2019-01-11T00:19:35.849Z,2.57
2019-01-11T00:20:36.026Z,2.65
2019-01-11T00:21:36.196Z,2.67
2019-01-11T00:22:36.376Z,2.62
2019-01-11T00:23:36.547Z,2.60
2019-01-11T00:24:36.716Z,2.65
2019-01-11T00:25:36.880Z,2.68
2019-01-11T00:26:37.057Z,2.60
2019-01-11T00:27:37.220Z,2.72
2019-01-11T00:28:37.386Z,2.72
2019-01-11T00:29:37.561Z,2.68
2019-01-11T00:30:37.728Z,2.65
2019-01-11T00:31:37.892Z,2.77
2019-01-11T00:32:38.067Z,2.65
2019-01-11T00:33:38.227Z,2.79
2019-01-11T00:34:38.409Z,2.79
2019-01-11T00:35:38.571Z,2.82
2019-01-11T00:36:38.741Z,2.72
2019-01-11T00:37:38.926Z,2.74
2019-01-11T00:38:39.078Z,2.65
2019-01-11T00:39:39.245Z,2.69
2019-01-11T00:40:39.427Z,2.68
2019-01-11T00:41:39.578Z,2.64
2019-01-11T00:42:39.764Z,2.57
2019-01-11T00:43:39.924Z,2.60
2019-01-11T00:44:40.111Z,2.61
2019-01-11T00:45:40.263Z,2.57
2019-01-11T00:46:40.427Z,2.68
2019-01-11T00:47:40.598Z,2.68
2019-01-11T00:48:40.772Z,2.68
2019-01-11T00:49:40.946Z,2.74
2019-01-11T00:50:41.106Z,2.71
2019-01-11T00:51:41.273Z,2.64
2019-01-11T00:52:41.450Z,2.65
2019-01-11T00:53:41.631Z,2.67
2019-01-11T00:54:41.803Z,2.64
2019-01-11T00:55:41.970Z,2.68
2019-01-11T00:56:42.140Z,2.74
2019-01-11T00:57:42.322Z,2.71
2019-01-11T00:58:42.482Z,2.74
2019-01-11T00:59:42.661Z,2.74
2019-01-11T01:00:42.817Z,2.50
2019-01-11T01:01:42.986Z,2.56
2019-01-11T01:02:43.158Z,2.54
2019-01-11T01:03:43.320Z,2.56
2019-01-11T01:04:43.480Z,2.39
2019-01-11T01:06:43.828Z,2.36
2019-01-11T01:07:43.997Z,2.36
2019-01-11T01:08:44.158Z,2.39
2019-01-11T01:09:44.327Z,2.33
2019-01-11T01:10:44.505Z,2.32
2019-01-11T01:11:44.666Z,2.24
2019-01-11T01:12:44.837Z,2.25
2019-01-11T01:13:45.004Z,2.20
2019-01-11T01:14:45.176Z,2.35
2019-01-11T01:15:45.358Z,2.15
2019-01-11T01:16:45.523Z,2.24
2019-01-11T01:17:45.690Z,2.18
2019-01-11T01:18:45.862Z,2.24
2019-01-11T01:19:46.030Z,2.20
2019-01-11T01:20:46.201Z,2.26
2019-01-11T01:21:46.372Z,2.14
2019-01-11T01:22:46.547Z,2.15
2019-01-11T01:23:46.711Z,2.18
2019-01-11T01:24:46.906Z,2.15
2019-01-11T01:25:47.055Z,2.10
2019-01-11T01:26:47.223Z,2.17
2019-01-11T01:27:47.406Z,2.36
2019-01-11T01:28:47.564Z,2.29
2019-01-11T01:29:47.737Z,2.28
2019-01-11T01:30:47.906Z,2.28
2019-01-11T01:31:48.109Z,2.10
2019-01-11T01:32:48.264Z,2.13
2019-01-11T01:33:48.420Z,2.17
2019-01-11T01:34:48.596Z,2.11
2019-01-11T01:35:48.759Z,2.18
2019-01-11T01:36:48.930Z,2.17
2019-01-11T01:37:49.102Z,2.15
2019-01-11T01:38:49.267Z,2.17
2019-01-11T01:39:49.447Z,2.22
2019-01-11T01:40:49.608Z,2.25
2019-01-11T01:41:49.766Z,2.20
2019-01-11T01:42:49.939Z,2.15
2019-01-11T01:43:50.107Z,2.17
2019-01-11T01:44:50.276Z,2.08
2019-01-11T01:45:50.453Z,2.10
2019-01-11T01:46:50.620Z,2.11
2019-01-11T01:47:50.791Z,2.08
2019-01-11T01:48:50.958Z,2.10
2019-01-11T01:49:51.128Z,2.07
2019-01-11T01:50:51.302Z,1.97
2019-01-11T01:51:51.478Z,1.97
2019-01-11T01:52:51.640Z,1.80
2019-01-11T01:53:51.808Z,1.95
2019-01-11T01:54:51.975Z,2.02
2019-01-11T01:55:52.145Z,2.02
2019-01-11T01:56:52.313Z,2.00
2019-01-11T01:57:52.482Z,2.02
2019-01-11T01:58:52.655Z,1.94
2019-01-11T01:59:52.831Z,1.94
2019-01-11T02:00:52.992Z,2.00
2019-01-11T02:01:53.165Z,2.00
2019-01-11T02:02:53.336Z,1.97
2019-01-11T02:03:53.500Z,1.91
2019-01-11T02:04:53.669Z,1.77
2019-01-11T02:05:53.838Z,1.67
2019-01-11T02:06:54.010Z,1.73
2019-01-11T02:07:54.176Z,1.71
2019-01-11T02:08:54.349Z,1.68
2019-01-11T02:09:54.519Z,1.67
2019-01-11T02:10:54.701Z,1.80
2019-01-11T02:11:54.854Z,1.80
2019-01-11T02:12:55.025Z,1.77
2019-01-11T02:13:55.194Z,1.63
2019-01-11T02:14:55.373Z,1.71
2019-01-11T02:15:55.531Z,1.71
2019-01-11T02:16:55.706Z,1.73
2019-01-11T02:17:55.870Z,1.73
2019-01-11T02:18:56.047Z,1.63
2019-01-11T02:19:56.213Z,1.81
2019-01-11T02:20:56.400Z,1.73
2019-01-11T02:21:56.560Z,1.70
2019-01-11T02:22:56.733Z,1.70
2019-01-11T02:23:56.898Z,1.73
2019-01-11T02:24:57.064Z,1.78
2019-01-11T02:25:57.235Z,1.49
2019-01-11T02:26:57.408Z,1.60
2019-01-11T02:27:57.574Z,1.48
2019-01-11T02:28:57.748Z,1.60
2019-01-11T02:29:57.922Z,1.62
2019-01-11T02:30:58.079Z,1.60
2019-01-11T02:31:58.251Z,1.66
2019-01-11T02:32:58.434Z,1.60
2019-01-11T02:33:58.591Z,1.63
2019-01-11T02:34:58.757Z,1.58
2019-01-11T02:35:58.931Z,1.56
2019-01-11T02:36:59.099Z,1.45
2019-01-11T02:37:59.269Z,1.60
2019-01-11T02:38:59.445Z,1.56
2019-01-11T02:39:59.612Z,1.67
2019-01-11T02:40:59.780Z,1.66
2019-01-11T02:41:59.952Z,1.70
2019-01-11T02:43:00.125Z,1.62
2019-01-11T02:44:00.302Z,1.48
2019-01-11T02:45:00.459Z,1.52
2019-01-11T02:46:00.632Z,1.52
2019-01-11T02:47:00.810Z,1.52
2019-01-11T02:48:00.975Z,1.50
2019-01-11T02:49:01.134Z,1.58
2019-01-11T02:50:01.306Z,1.66
2019-01-11T02:51:01.474Z,1.41
2019-01-11T02:52:01.645Z,1.44
2019-01-11T02:53:01.827Z,1.41
2019-01-11T02:54:01.981Z,1.52
2019-01-11T02:55:02.152Z,1.53
2019-01-11T02:56:02.324Z,1.50
2019-01-11T02:57:02.491Z,1.55
2019-01-11T02:58:02.662Z,1.49
2019-01-11T02:59:02.980Z,1.40
2019-01-11T03:00:03.002Z,1.53
2019-01-11T03:01:03.169Z,1.52
2019-01-11T03:02:03.343Z,1.50
2019-01-11T03:03:03.510Z,1.50
2019-01-11T03:04:03.680Z,1.55
2019-01-11T03:05:03.845Z,1.55
2019-01-11T03:06:04.021Z,1.49
2019-01-11T03:07:04.202Z,1.49
2019-01-11T03:08:04.353Z,1.53
2019-01-11T03:09:04.524Z,1.48
2019-01-11T03:10:04.689Z,1.42
2019-01-11T03:11:04.861Z,1.38
2019-01-11T03:12:05.026Z,1.32
2019-01-11T03:13:05.204Z,1.34
2019-01-11T03:14:05.368Z,1.40
2019-01-11T03:15:05.534Z,1.38
2019-01-11T03:16:05.706Z,1.41
2019-01-11T03:17:05.951Z,1.41
2019-01-11T03:18:06.045Z,1.41
2019-01-11T03:19:06.214Z,1.44
2019-01-11T03:20:06.384Z,1.41
2019-01-11T03:21:06.553Z,1.44
2019-01-11T03:22:06.724Z,1.32
2019-01-11T03:23:06.897Z,1.40
2019-01-11T03:24:07.057Z,1.23
2019-01-11T03:25:07.243Z,1.23
2019-01-11T03:26:07.398Z,1.35
2019-01-11T03:27:07.568Z,1.28
2019-01-11T03:28:07.741Z,1.34
2019-01-11T03:29:07.906Z,1.24
2019-01-11T03:30:08.080Z,1.32
2019-01-11T03:31:08.242Z,1.19
2019-01-11T03:32:08.402Z,1.31
2019-01-11T03:33:08.580Z,1.23
2019-01-11T03:34:08.748Z,1.19
2019-01-11T03:35:08.921Z,1.23
2019-01-11T03:36:09.082Z,1.24
2019-01-11T03:37:09.250Z,1.22
2019-01-11T03:38:09.423Z,1.30
2019-01-11T03:39:09.594Z,1.31
2019-01-11T03:40:09.763Z,1.17
2019-01-11T03:41:09.930Z,1.23
2019-01-11T03:42:10.104Z,1.34
2019-01-11T03:43:10.267Z,1.16
2019-01-11T03:44:10.436Z,1.14
2019-01-11T03:45:10.606Z,1.23
2019-01-11T03:46:10.771Z,1.17
2019-01-11T03:47:10.951Z,1.26
2019-01-11T03:48:11.107Z,1.20
2019-01-11T03:49:11.280Z,1.34
2019-01-11T03:50:11.452Z,1.14
2019-01-11T03:51:11.620Z,0.99
2019-01-11T03:52:11.790Z,1.04
2019-01-11T03:53:11.964Z,1.08
2019-01-11T03:54:12.131Z,1.24
2019-01-11T03:55:12.296Z,1.31
2019-01-11T03:56:12.461Z,1.38
2019-01-11T03:57:12.632Z,1.22
2019-01-11T03:58:12.805Z,1.20
2019-01-11T03:59:12.972Z,1.16
2019-01-11T04:00:13.141Z,1.14
2019-01-11T04:01:13.316Z,1.20
2019-01-11T04:02:13.475Z,1.32
2019-01-11T04:03:13.642Z,1.44
2019-01-11T04:04:13.820Z,1.38
2019-01-11T04:05:13.987Z,1.52
2019-01-11T04:06:14.151Z,1.52
2019-01-11T04:07:14.317Z,1.42
2019-01-11T04:08:14.487Z,1.20
2019-01-11T04:09:14.660Z,1.28
2019-01-11T04:10:14.819Z,1.28
2019-01-11T04:11:14.984Z,1.17
2019-01-11T04:12:15.153Z,1.26
2019-01-11T04:13:15.327Z,1.24
2019-01-11T04:14:15.493Z,1.26
2019-01-11T04:15:15.665Z,1.23
2019-01-11T04:16:15.834Z,1.23
2019-01-11T04:17:16.001Z,1.22
2019-01-11T04:18:16.172Z,1.04
2019-01-11T04:19:16.339Z,1.04
2019-01-11T04:20:16.538Z,0.99
2019-01-11T04:21:16.675Z,1.14
2019-01-11T04:22:16.849Z,1.16
2019-01-11T04:23:17.012Z,1.16
2019-01-11T04:24:17.183Z,1.05
2019-01-11T04:25:17.351Z,1.05
2019-01-11T04:26:17.518Z,1.01
2019-01-11T04:27:17.694Z,1.05
2019-01-11T04:28:17.851Z,1.16
2019-01-11T04:29:18.021Z,1.13
2019-01-11T04:30:18.188Z,1.14
2019-01-11T04:31:18.358Z,1.19
2019-01-11T04:32:18.531Z,1.22
2019-01-11T04:33:18.700Z,1.23
2019-01-11T04:34:18.871Z,1.13
2019-01-11T04:35:19.042Z,1.14
2019-01-11T04:36:19.217Z,1.22
2019-01-11T04:37:19.377Z,1.12
2019-01-11T04:38:19.558Z,1.13
2019-01-11T04:39:19.716Z,1.24
2019-01-11T04:40:19.881Z,1.22
2019-01-11T04:41:20.067Z,1.04
2019-01-11T04:42:20.220Z,1.04
2019-01-11T04:43:20.383Z,1.08
2019-01-11T04:44:20.557Z,1.16
2019-01-11T04:45:20.726Z,1.10
2019-01-11T04:46:20.902Z,1.02
2019-01-11T04:47:21.067Z,1.08
2019-01-11T04:48:21.228Z,1.14
2019-01-11T04:49:21.394Z,1.10
2019-01-11T04:50:21.577Z,1.02
2019-01-11T04:51:21.732Z,1.10
2019-01-11T04:52:21.901Z,1.19
2019-01-11T04:53:22.074Z,1.14
2019-01-11T04:54:22.232Z,1.10
2019-01-11T04:55:22.412Z,1.06
2019-01-11T04:56:22.572Z,1.05
2019-01-11T04:57:22.742Z,1.14
2019-01-11T04:58:22.911Z,1.16
2019-01-11T04:59:23.078Z,1.26
2019-01-11T05:00:23.252Z,1.24
2019-01-11T05:01:23.419Z,1.28
2019-01-11T05:02:23.587Z,1.30
2019-01-11T05:03:23.764Z,1.17
2019-01-11T05:04:23.927Z,1.20
2019-01-11T05:05:24.096Z,1.14
2019-01-11T05:06:24.261Z,1.12
2019-01-11T05:07:24.430Z,1.31
2019-01-11T05:08:24.610Z,1.24
2019-01-11T05:09:24.774Z,1.17
2019-01-11T05:10:24.942Z,1.16
2019-01-11T05:11:25.109Z,1.16
2019-01-11T05:12:25.284Z,1.13
2019-01-11T05:13:25.451Z,1.10
2019-01-11T05:14:25.612Z,1.16
2019-01-11T05:15:25.781Z,1.13
2019-01-11T05:16:25.952Z,1.19
2019-01-11T05:17:26.119Z,1.30
2019-01-11T05:18:26.287Z,1.26
2019-01-11T05:19:26.459Z,1.23
2019-01-11T05:20:26.638Z,1.23
2019-01-11T05:21:26.799Z,1.28
2019-01-11T05:22:26.967Z,1.23
2019-01-11T05:23:27.137Z,1.28
2019-01-11T05:24:27.307Z,1.14
2019-01-11T05:25:27.472Z,1.30
2019-01-11T05:26:27.639Z,1.26
2019-01-11T05:27:27.808Z,1.23
2019-01-11T05:28:27.972Z,1.23
2019-01-11T05:29:28.144Z,1.30
2019-01-11T05:30:28.316Z,1.40
2019-01-11T05:31:28.483Z,1.19
2019-01-11T05:32:28.675Z,1.28
2019-01-11T05:33:28.833Z,1.30
2019-01-11T05:34:29.002Z,1.14
2019-01-11T05:35:29.171Z,1.16
2019-01-11T05:36:29.344Z,0.99
2019-01-11T05:37:29.517Z,1.12
2019-01-11T05:38:29.698Z,1.13
2019-01-11T05:39:29.860Z,1.05
2019-01-11T05:40:30.024Z,1.16
2019-01-11T05:41:30.204Z,1.23
2019-01-11T05:42:30.354Z,1.14
2019-01-11T05:43:30.524Z,1.17
2019-01-11T05:44:30.699Z,1.22
2019-01-11T05:45:30.861Z,1.23
2019-01-11T05:46:31.032Z,1.19
2019-01-11T05:47:31.201Z,1.20
2019-01-11T05:48:31.374Z,1.14
2019-01-11T05:49:31.543Z,1.13
2019-01-11T05:50:31.699Z,1.23
2019-01-11T05:51:31.875Z,1.28
2019-01-11T05:52:32.032Z,1.42
2019-01-11T05:53:32.203Z,1.40
2019-01-11T05:54:32.368Z,1.26
2019-01-11T05:55:32.540Z,1.30
2019-01-11T05:56:32.710Z,1.34
2019-01-11T05:57:32.870Z,1.40
2019-01-11T05:58:33.032Z,1.37
2019-01-11T05:59:33.196Z,1.32
2019-01-11T06:00:33.399Z,1.50
2019-01-11T06:01:33.560Z,1.35
2019-01-11T06:02:33.738Z,1.48
2019-01-11T06:03:33.900Z,1.50
2019-01-11T06:04:34.071Z,1.45
2019-01-11T06:05:34.237Z,1.55
2019-01-11T06:06:34.413Z,1.37
2019-01-11T06:07:34.577Z,1.41
2019-01-11T06:08:34.741Z,1.38
2019-01-11T06:09:34.912Z,1.38
2019-01-11T06:10:35.078Z,1.38
2019-01-11T06:11:35.249Z,1.32
2019-01-11T06:12:35.415Z,1.34
2019-01-11T06:13:35.612Z,1.41
2019-01-11T06:14:35.772Z,1.37
2019-01-11T06:15:35.946Z,1.44
2019-01-11T06:16:36.118Z,1.41
2019-01-11T06:17:36.286Z,1.37
2019-01-11T06:18:36.452Z,1.37
2019-01-11T06:19:36.627Z,1.38
2019-01-11T06:20:36.795Z,1.38
2019-01-11T06:21:36.964Z,1.37
2019-01-11T06:22:37.138Z,1.40
2019-01-11T06:23:37.308Z,1.40
2019-01-11T06:24:37.471Z,1.40
2019-01-11T06:25:37.662Z,1.40
2019-01-11T06:26:37.800Z,1.45
2019-01-11T06:27:37.971Z,1.50
2019-01-11T06:28:38.140Z,1.60
2019-01-11T06:29:38.316Z,1.50
2019-01-11T06:30:38.480Z,1.55
2019-01-11T06:31:38.648Z,1.56
2019-01-11T06:32:38.816Z,1.50
2019-01-11T06:33:38.989Z,1.50
2019-01-11T06:34:39.167Z,1.55
2019-01-11T06:35:39.324Z,1.50
2019-01-11T06:36:39.501Z,1.53
2019-01-11T06:37:39.656Z,1.49
2019-01-11T06:38:39.835Z,1.60
2019-01-11T06:39:39.988Z,1.52
2019-01-11T06:40:40.157Z,1.52
2019-01-11T06:41:40.326Z,1.48
2019-01-11T06:42:40.495Z,1.53
2019-01-11T06:43:40.675Z,1.52
2019-01-11T06:44:40.850Z,1.49
2019-01-11T06:45:41.003Z,1.58
2019-01-11T06:46:41.162Z,1.53
2019-01-11T06:47:41.327Z,1.52
2019-01-11T06:48:41.518Z,1.50
2019-01-11T06:49:41.666Z,1.45
2019-01-11T06:50:41.836Z,1.50
2019-01-11T06:51:42.005Z,1.53
2019-01-11T06:52:42.168Z,1.32
2019-01-11T06:53:42.338Z,1.48
2019-01-11T06:54:42.512Z,1.52
2019-01-11T06:55:42.679Z,1.66
2019-01-11T06:56:42.857Z,1.68
2019-01-11T06:57:43.030Z,1.66
2019-01-11T06:58:43.193Z,1.67
2019-01-11T06:59:43.362Z,1.68
2019-01-11T07:00:43.530Z,1.66
2019-01-11T07:01:43.688Z,1.71
2019-01-11T07:02:43.873Z,1.77
2019-01-11T07:03:44.049Z,1.80
2019-01-11T07:04:44.216Z,1.68
2019-01-11T07:05:44.388Z,1.66
2019-01-11T07:06:44.584Z,1.67
2019-01-11T07:07:44.725Z,1.71
2019-01-11T07:08:44.898Z,1.73
2019-01-11T07:09:45.068Z,1.71
2019-01-11T07:10:45.245Z,1.78
2019-01-11T07:11:45.406Z,1.74
2019-01-11T07:12:45.576Z,1.70
2019-01-11T07:13:45.753Z,1.76
2019-01-11T07:14:45.911Z,1.81
2019-01-11T07:15:46.080Z,1.89
2019-01-11T07:16:46.248Z,1.87
2019-01-11T07:17:46.413Z,1.77
2019-01-11T07:18:47.120Z,1.84
2019-01-11T07:19:46.742Z,1.81
2019-01-11T07:20:47.613Z,1.80
2019-01-11T07:21:47.054Z,1.85
2019-01-11T07:22:47.232Z,1.87
2019-01-11T07:23:47.398Z,1.84
2019-01-11T07:24:47.576Z,1.81
2019-01-11T07:25:47.901Z,1.80
2019-01-11T07:26:47.941Z,1.80
2019-01-11T07:27:48.078Z,1.88
2019-01-11T07:28:48.265Z,1.87
2019-01-11T07:29:48.425Z,1.80
2019-01-11T07:30:48.575Z,1.77
2019-01-11T07:31:48.735Z,1.84
2019-01-11T07:32:48.906Z,1.80
2019-01-11T07:33:49.075Z,1.91
2019-01-11T07:34:49.272Z,1.89
2019-01-11T07:35:49.439Z,1.81
2019-01-11T07:36:49.629Z,1.88
2019-01-11T07:37:49.777Z,1.88
2019-01-11T07:38:49.939Z,1.95
2019-01-11T07:39:50.117Z,2.00
2019-01-11T07:40:50.281Z,1.92
2019-01-11T07:41:50.451Z,1.95
2019-01-11T07:42:50.620Z,2.00
2019-01-11T07:43:50.784Z,1.95
2019-01-11T07:44:50.958Z,1.97
2019-01-11T07:45:51.127Z,2.04
2019-01-11T07:46:51.296Z,2.13
2019-01-11T07:47:51.465Z,2.10
2019-01-11T07:48:51.635Z,2.08
2019-01-11T07:49:51.807Z,2.10
2019-01-11T07:50:51.975Z,2.10
2019-01-11T07:51:52.158Z,2.17
2019-01-11T07:52:52.319Z,2.24
2019-01-11T07:53:52.490Z,2.26
2019-01-11T07:54:52.661Z,2.29
2019-01-11T07:55:52.844Z,2.29
2019-01-11T07:56:53.010Z,2.29
2019-01-11T07:57:53.187Z,2.31
2019-01-11T07:58:53.364Z,2.26
2019-01-11T07:59:53.542Z,2.29
2019-01-11T08:00:53.703Z,2.32
2019-01-11T08:01:53.859Z,2.32
2019-01-11T08:02:54.022Z,2.25
2019-01-11T08:03:54.196Z,2.13
2019-01-11T08:04:54.374Z,2.14
2019-01-11T08:05:54.536Z,2.04
2019-01-11T08:06:54.709Z,2.15
2019-01-11T08:07:54.878Z,2.17
2019-01-11T08:08:55.047Z,2.17
2019-01-11T08:09:55.213Z,2.13
2019-01-11T08:10:55.392Z,2.20
2019-01-11T08:11:55.568Z,2.15
2019-01-11T08:12:55.731Z,2.32
2019-01-11T08:13:55.917Z,2.17
2019-01-11T08:14:56.114Z,2.14
2019-01-11T08:15:56.254Z,2.08
2019-01-11T08:16:56.423Z,2.04
2019-01-11T08:17:56.585Z,2.08
2019-01-11T08:18:56.748Z,2.08
2019-01-11T08:19:56.917Z,2.10
2019-01-11T08:20:57.086Z,2.08
2019-01-11T08:21:57.257Z,2.04
2019-01-11T08:22:57.440Z,2.06
2019-01-11T08:23:57.602Z,2.02
2019-01-11T08:24:57.782Z,2.06
2019-01-11T08:25:57.937Z,2.08
2019-01-11T08:26:58.112Z,2.07
2019-01-11T08:27:58.288Z,2.08
2019-01-11T08:28:58.461Z,2.11
2019-01-11T08:29:58.620Z,2.10
2019-01-11T08:30:58.782Z,2.07
2019-01-11T08:31:58.958Z,2.00
2019-01-11T08:32:59.131Z,1.92
2019-01-11T08:33:59.300Z,1.88
2019-01-11T08:34:59.469Z,1.89
2019-01-11T08:35:59.631Z,1.89
2019-01-11T08:36:59.800Z,1.94
2019-01-11T08:37:59.968Z,2.00
2019-01-11T08:39:00.148Z,2.06
2019-01-11T08:40:00.316Z,2.06
2019-01-11T08:41:00.485Z,1.91
2019-01-11T08:42:00.645Z,2.04
2019-01-11T08:43:00.811Z,1.99
2019-01-11T08:44:00.990Z,1.94
2019-01-11T08:45:01.153Z,1.88
2019-01-11T08:46:01.318Z,1.99
2019-01-11T08:47:01.497Z,1.94
2019-01-11T08:48:01.664Z,2.08
2019-01-11T08:49:01.838Z,2.06
2019-01-11T08:50:02.012Z,2.07
2019-01-11T08:51:02.751Z,2.00
2019-01-11T08:52:02.342Z,1.94
2019-01-11T08:53:02.519Z,2.13
2019-01-11T08:54:02.698Z,2.07
2019-01-11T08:55:02.869Z,1.94
2019-01-11T08:56:08.305Z,1.95
2019-01-11T08:57:03.193Z,2.02
2019-01-11T08:58:03.365Z,1.89
2019-01-11T08:59:03.536Z,2.04
2019-01-11T09:00:03.706Z,2.08
2019-01-11T09:01:03.895Z,2.08
2019-01-11T09:02:04.063Z,2.15
2019-01-11T09:03:04.231Z,2.07
2019-01-11T09:04:04.407Z,2.06
2019-01-11T09:05:04.580Z,2.02
2019-01-11T09:06:04.749Z,2.02
2019-01-11T09:07:04.924Z,1.99
2019-01-11T09:08:05.091Z,2.06
2019-01-11T09:09:05.258Z,2.08
2019-01-11T09:10:05.431Z,2.18
2019-01-11T09:11:05.610Z,2.15
2019-01-11T09:12:05.775Z,2.14
2019-01-11T09:13:06.028Z,2.18
2019-01-11T09:14:06.076Z,2.17
2019-01-11T09:15:06.244Z,2.24
2019-01-11T09:16:06.423Z,2.24
2019-01-11T09:17:06.585Z,2.20
2019-01-11T09:18:06.757Z,2.18
2019-01-11T09:19:06.919Z,2.17
2019-01-11T09:20:07.078Z,2.18
2019-01-11T09:21:09.514Z,2.32
2019-01-11T09:22:07.430Z,2.25
2019-01-11T09:23:07.602Z,2.33
2019-01-11T09:24:07.784Z,2.36
2019-01-11T09:25:07.952Z,2.32
2019-01-11T09:26:08.137Z,2.42
2019-01-11T09:27:08.283Z,2.36
2019-01-11T09:28:08.459Z,2.36
2019-01-11T09:29:08.643Z,2.42
2019-01-11T09:30:08.805Z,2.33
2019-01-11T09:31:08.991Z,2.28
2019-01-11T09:32:09.139Z,2.38
2019-01-11T09:33:09.324Z,2.31
2019-01-11T09:34:09.476Z,2.31
2019-01-11T09:35:09.648Z,2.44
2019-01-11T09:36:09.823Z,2.31
2019-01-11T09:37:09.996Z,2.38
2019-01-11T09:38:10.245Z,2.38
2019-01-11T09:39:10.337Z,2.47
2019-01-11T09:40:10.511Z,2.43
2019-01-11T09:41:10.686Z,2.39
2019-01-11T09:42:10.853Z,2.44
2019-01-11T09:43:11.009Z,2.46
2019-01-11T09:44:11.209Z,2.46
2019-01-11T09:45:11.370Z,2.39
2019-01-11T09:46:11.544Z,2.36
2019-01-11T09:47:11.727Z,2.51
2019-01-11T09:48:11.888Z,2.46
2019-01-11T09:49:12.058Z,2.49
2019-01-11T09:50:12.234Z,2.51
2019-01-11T09:51:15.704Z,2.53
2019-01-11T09:52:12.555Z,2.50
2019-01-11T09:53:12.724Z,2.53
2019-01-11T09:54:12.899Z,2.50
2019-01-11T09:55:13.066Z,2.49
2019-01-11T09:56:13.223Z,2.39
2019-01-11T09:57:13.410Z,2.51
2019-01-11T09:58:13.585Z,2.42
2019-01-11T09:59:13.731Z,2.47
2019-01-11T10:00:13.906Z,2.50
2019-01-11T10:01:14.061Z,2.53
2019-01-11T10:02:14.246Z,2.53
2019-01-11T10:03:14.382Z,2.56
2019-01-11T10:04:14.547Z,2.67
2019-01-11T10:05:14.736Z,2.62
2019-01-11T10:06:14.871Z,2.56
2019-01-11T10:07:15.050Z,2.56
2019-01-11T10:08:15.212Z,2.50
2019-01-11T10:09:15.391Z,2.68
2019-01-11T10:10:15.557Z,2.67
2019-01-11T10:11:16.637Z,2.62
2019-01-11T10:12:15.882Z,2.68
2019-01-11T10:13:16.646Z,2.75
2019-01-11T10:14:16.231Z,2.72
2019-01-11T10:15:16.395Z,2.71
2019-01-11T10:16:16.551Z,2.79
2019-01-11T10:17:16.718Z,2.79
2019-01-11T10:18:16.919Z,2.87
2019-01-11T10:19:17.062Z,2.85
2019-01-11T10:20:17.228Z,2.79
2019-01-11T10:21:22.440Z,2.75
2019-01-11T10:22:17.551Z,2.71
2019-01-11T10:23:17.721Z,2.71
2019-01-11T10:24:17.890Z,2.68
2019-01-11T10:25:18.061Z,2.72
2019-01-11T10:26:18.229Z,2.85
2019-01-11T10:27:18.391Z,2.93
2019-01-11T10:28:18.564Z,2.82
2019-01-11T10:29:18.728Z,2.92
2019-01-11T10:30:18.904Z,2.93
2019-01-11T10:31:19.063Z,2.95
2019-01-11T10:32:19.261Z,2.90
2019-01-11T10:33:19.408Z,2.86
2019-01-11T10:34:19.579Z,2.79
2019-01-11T10:35:19.748Z,2.80
2019-01-11T10:36:19.921Z,2.87
2019-01-11T10:37:20.113Z,2.97
2019-01-11T10:38:20.276Z,2.92
2019-01-11T10:39:20.449Z,2.92
2019-01-11T10:40:20.616Z,2.92
2019-01-11T10:41:20.796Z,2.87
2019-01-11T10:42:20.963Z,2.87
2019-01-11T10:43:21.136Z,2.71
2019-01-11T10:44:21.310Z,2.79
2019-01-11T10:45:21.468Z,2.77
2019-01-11T10:46:21.629Z,2.77
2019-01-11T10:47:21.808Z,2.77
2019-01-11T10:48:21.985Z,2.69
2019-01-11T10:49:22.141Z,2.79
2019-01-11T10:50:22.311Z,2.69
2019-01-11T10:51:28.045Z,2.71
2019-01-11T10:52:22.655Z,2.69
2019-01-11T10:53:22.831Z,2.68
2019-01-11T10:54:22.994Z,2.69
2019-01-11T10:55:24.209Z,2.68
2019-01-11T10:56:23.339Z,2.75
2019-01-11T10:57:23.514Z,2.83
2019-01-11T10:58:23.687Z,2.85
2019-01-11T10:59:23.896Z,2.79
2019-01-11T11:00:24.003Z,2.80
2019-01-11T11:01:24.161Z,2.83
2019-01-11T11:02:24.354Z,2.83
2019-01-11T11:03:24.521Z,2.92
2019-01-11T11:04:24.695Z,2.87
2019-01-11T11:05:24.843Z,2.86
2019-01-11T11:06:25.015Z,2.89
2019-01-11T11:07:25.194Z,2.86
2019-01-11T11:08:25.355Z,2.89
2019-01-11T11:09:25.523Z,2.89
2019-01-11T11:10:25.710Z,2.83
2019-01-11T11:11:25.847Z,2.85
2019-01-11T11:12:26.020Z,2.79
2019-01-11T11:13:26.190Z,2.72
2019-01-11T11:14:26.361Z,2.79
2019-01-11T11:15:26.527Z,2.83
2019-01-11T11:16:26.703Z,2.77
2019-01-11T11:17:26.878Z,2.69
2019-01-11T11:18:28.075Z,2.75
2019-01-11T11:19:27.205Z,2.77
2019-01-11T11:20:27.362Z,2.68
2019-01-11T11:21:27.535Z,2.71
2019-01-11T11:22:27.701Z,2.69
2019-01-11T11:23:27.869Z,2.77
2019-01-11T11:24:28.041Z,2.75
2019-01-11T11:25:28.214Z,2.77
2019-01-11T11:26:28.394Z,2.87
2019-01-11T11:27:28.548Z,2.90
2019-01-11T11:28:28.721Z,2.92
2019-01-11T11:29:28.891Z,2.93
2019-01-11T11:30:29.057Z,2.85
2019-01-11T11:31:29.231Z,2.83
2019-01-11T11:32:29.400Z,2.89
2019-01-11T11:33:29.573Z,2.80
2019-01-11T11:34:29.722Z,2.92
2019-01-11T11:35:29.907Z,3.00
2019-01-11T11:36:30.073Z,2.87
2019-01-11T11:37:30.247Z,2.87
2019-01-11T11:38:30.413Z,2.92
2019-01-11T11:39:30.575Z,2.92
2019-01-11T11:40:30.752Z,2.87
2019-01-11T11:41:30.917Z,2.83
2019-01-11T11:42:31.090Z,2.85
2019-01-11T11:43:31.259Z,2.97
2019-01-11T11:44:31.429Z,2.82
2019-01-11T11:45:31.603Z,3.00
2019-01-11T11:46:31.771Z,3.03
2019-01-11T11:47:31.930Z,2.90
2019-01-11T11:48:32.103Z,3.00
2019-01-11T11:49:32.282Z,3.13
2019-01-11T11:50:32.479Z,2.95
2019-01-11T11:51:32.613Z,3.00
2019-01-11T11:52:32.788Z,3.07
2019-01-11T11:53:32.946Z,3.03
2019-01-11T11:54:33.130Z,3.00
2019-01-11T11:55:33.291Z,2.95
2019-01-11T11:56:33.457Z,3.07
2019-01-11T11:57:33.639Z,2.93
2019-01-11T11:58:33.797Z,2.98
2019-01-11T11:59:33.971Z,2.92
2019-01-11T12:00:34.140Z,2.95
2019-01-11T12:01:34.306Z,2.98
2019-01-11T12:02:34.473Z,2.97
2019-01-11T12:03:34.644Z,3.01
2019-01-11T12:04:34.807Z,3.05
2019-01-11T12:05:34.977Z,2.92
2019-01-11T12:06:35.143Z,3.07
2019-01-11T12:07:35.326Z,3.05
2019-01-11T12:08:35.475Z,3.08
2019-01-11T12:09:35.640Z,3.10
2019-01-11T12:10:35.813Z,3.11
2019-01-11T12:11:35.979Z,3.23
2019-01-11T12:12:36.154Z,3.25
2019-01-11T12:13:36.321Z,3.25
2019-01-11T12:14:36.486Z,3.08
2019-01-11T12:15:36.661Z,3.25
2019-01-11T12:16:36.834Z,3.14
2019-01-11T12:17:37.006Z,3.10
2019-01-11T12:18:37.166Z,3.13
2019-01-11T12:19:37.343Z,3.03
2019-01-11T12:20:37.524Z,3.01
2019-01-11T12:21:37.679Z,3.11
2019-01-11T12:22:37.838Z,3.10
2019-01-11T12:23:38.014Z,3.03
2019-01-11T12:24:38.182Z,3.18
2019-01-11T12:25:38.366Z,3.10
2019-01-11T12:26:38.529Z,3.10
2019-01-11T12:27:38.699Z,3.13
2019-01-11T12:28:38.853Z,3.16
2019-01-11T12:29:39.019Z,3.04
2019-01-11T12:30:39.181Z,3.26
2019-01-11T12:31:39.352Z,3.14
2019-01-11T12:32:39.507Z,3.23
2019-01-11T12:33:39.682Z,3.14
2019-01-11T12:34:39.875Z,3.21
2019-01-11T12:35:40.038Z,3.11
2019-01-11T12:36:40.215Z,3.14
2019-01-11T12:37:40.382Z,3.18
2019-01-11T12:38:40.550Z,3.18
2019-01-11T12:39:40.718Z,3.18
2019-01-11T12:40:40.881Z,3.21
2019-01-11T12:41:41.054Z,3.18
2019-01-11T12:43:41.380Z,3.23
2019-01-11T12:44:41.553Z,3.28
2019-01-11T12:45:41.727Z,3.14
2019-01-11T12:46:41.892Z,3.23
2019-01-11T12:47:42.059Z,3.16
2019-01-11T12:48:42.234Z,3.22
2019-01-11T12:49:42.395Z,3.26
2019-01-11T12:50:42.577Z,3.36
2019-01-11T12:51:42.743Z,3.21
2019-01-11T12:52:42.903Z,3.19
2019-01-11T12:53:43.069Z,3.19
2019-01-11T12:54:43.245Z,3.22
2019-01-11T12:55:43.415Z,3.23
2019-01-11T12:56:43.573Z,3.29
2019-01-11T12:57:43.741Z,3.25
2019-01-11T12:58:43.954Z,3.34
2019-01-11T12:59:44.114Z,3.25
2019-01-11T13:00:44.284Z,3.37
2019-01-11T13:01:44.462Z,3.40
2019-01-11T13:02:44.633Z,3.42
2019-01-11T13:03:44.814Z,3.31
2019-01-11T13:04:44.985Z,3.34
2019-01-11T13:05:45.149Z,3.32
2019-01-11T13:06:45.318Z,3.21
2019-01-11T13:07:45.495Z,3.22
2019-01-11T13:08:45.660Z,3.14
2019-01-11T13:09:45.830Z,3.25
2019-01-11T13:10:46.064Z,3.18
2019-01-11T13:11:46.223Z,3.22
2019-01-11T13:12:46.390Z,3.23
2019-01-11T13:13:46.541Z,3.25
2019-01-11T13:14:46.725Z,3.19
2019-01-11T13:15:46.893Z,3.26
2019-01-11T13:16:47.064Z,3.25
2019-01-11T13:17:47.219Z,3.22
2019-01-11T13:18:47.389Z,3.19
2019-01-11T13:19:47.549Z,3.37
2019-01-11T13:20:47.716Z,3.36
2019-01-11T13:21:47.886Z,3.34
2019-01-11T13:22:48.051Z,3.36